Port Royal, Kentucky
Current Conditions -  °F | °C
As of 3:53 PM on Tuesday 25 Nov 2014 (Local Time) from KFFT Reporting Station
Clear Clear  
Wind Chill: 42°   Ceiling: Unl
Heat Index: 44°   Visibility: 10mi
Dew Point: 26°   Wind: 5mph
Humidity: 49%   Direction: 270°W
Pressure: 30.11"   Gusts: NA
Location:  38.56°N, 85.08°W
Report Text: KFFT 252053Z AUTO 27004KT 10SM CLR 07/M03 A3011 RMK AO2 SLP199 T00671033 55004
Loading
Personal Weather Stations






























Interactive Weather Map New forecast layout! Learn more

10-Day Weather Forecast

Advertisements
Track Severe Weather on mobile